sensor_id;sensor_type;location;lat;lon;timestamp;temperature;humidity
53053;DHT22;38934;52.690;6.184;2024-01-25T00:01:12;6.80;99.90
53053;DHT22;38934;52.690;6.184;2024-01-25T00:03:37;6.80;99.90
53053;DHT22;38934;52.690;6.184;2024-01-25T00:06:05;6.70;99.90
53053;DHT22;38934;52.690;6.184;2024-01-25T00:08:31;6.80;99.90
53053;DHT22;38934;52.690;6.184;2024-01-25T00:10:57;6.60;99.90
53053;DHT22;38934;52.690;6.184;2024-01-25T00:13:22;6.70;99.90
53053;DHT22;38934;52.690;6.184;2024-01-25T00:15:48;6.60;99.90
53053;DHT22;38934;52.690;6.184;2024-01-25T00:18:13;6.50;99.90
53053;DHT22;38934;52.690;6.184;2024-01-25T00:20:39;6.50;99.90
53053;DHT22;38934;52.690;6.184;2024-01-25T00:23:06;6.40;99.90
53053;DHT22;38934;52.690;6.184;2024-01-25T00:25:32;6.40;99.90
53053;DHT22;38934;52.690;6.184;2024-01-25T00:27:57;6.40;99.90
53053;DHT22;38934;52.690;6.184;2024-01-25T00:30:23;6.40;99.90
53053;DHT22;38934;52.690;6.184;2024-01-25T00:32:49;6.30;99.90
53053;DHT22;38934;52.690;6.184;2024-01-25T00:35:15;6.30;99.90
53053;DHT22;38934;52.690;6.184;2024-01-25T00:37:41;6.30;99.90
53053;DHT22;38934;52.690;6.184;2024-01-25T00:40:07;6.30;99.90
53053;DHT22;38934;52.690;6.184;2024-01-25T00:42:39;6.30;99.90
53053;DHT22;38934;52.690;6.184;2024-01-25T00:45:06;6.30;99.90
53053;DHT22;38934;52.690;6.184;2024-01-25T00:47:32;6.20;99.90
53053;DHT22;38934;52.690;6.184;2024-01-25T00:49:58;6.20;99.90
53053;DHT22;38934;52.690;6.184;2024-01-25T00:52:24;6.20;99.90
53053;DHT22;38934;52.690;6.184;2024-01-25T00:54:50;6.10;99.90
53053;DHT22;38934;52.690;6.184;2024-01-25T00:57:16;6.10;99.90
53053;DHT22;38934;52.690;6.184;2024-01-25T00:59:41;6.10;99.90
53053;DHT22;38934;52.690;6.184;2024-01-25T01:02:11;6.00;99.90
53053;DHT22;38934;52.690;6.184;2024-01-25T01:04:37;6.10;99.90
53053;DHT22;38934;52.690;6.184;2024-01-25T01:07:04;6.00;99.90
53053;DHT22;38934;52.690;6.184;2024-01-25T01:09:29;6.00;99.90
53053;DHT22;38934;52.690;6.184;2024-01-25T01:11:55;6.00;99.90
53053;DHT22;38934;52.690;6.184;2024-01-25T01:14:20;6.00;99.90
53053;DHT22;38934;52.690;6.184;2024-01-25T01:16:46;6.00;99.90
53053;DHT22;38934;52.690;6.184;2024-01-25T01:19:12;6.10;99.90
53053;DHT22;38934;52.690;6.184;2024-01-25T01:21:38;6.10;99.90
53053;DHT22;38934;52.690;6.184;2024-01-25T01:24:06;6.10;99.90
53053;DHT22;38934;52.690;6.184;2024-01-25T01:26:32;6.60;99.90
53053;DHT22;38934;52.690;6.184;2024-01-25T01:28:57;6.10;99.90
53053;DHT22;38934;52.690;6.184;2024-01-25T01:31:23;6.10;99.90
53053;DHT22;38934;52.690;6.184;2024-01-25T01:33:49;6.10;99.90
53053;DHT22;38934;52.690;6.184;2024-01-25T01:36:14;6.00;99.90
53053;DHT22;38934;52.690;6.184;2024-01-25T01:38:40;6.00;99.90
53053;DHT22;38934;52.690;6.184;2024-01-25T01:41:06;6.00;99.90
53053;DHT22;38934;52.690;6.184;2024-01-25T01:43:31;5.90;99.90
53053;DHT22;38934;52.690;6.184;2024-01-25T01:46:04;5.90;99.90
53053;DHT22;38934;52.690;6.184;2024-01-25T01:48:31;5.90;99.90
53053;DHT22;38934;52.690;6.184;2024-01-25T01:50:56;5.90;99.90
53053;DHT22;38934;52.690;6.184;2024-01-25T01:53:22;6.60;99.90
53053;DHT22;38934;52.690;6.184;2024-01-25T01:55:48;5.90;99.90
53053;DHT22;38934;52.690;6.184;2024-01-25T01:58:13;5.90;99.90
53053;DHT22;38934;52.690;6.184;2024-01-25T02:00:41;5.90;99.90
53053;DHT22;38934;52.690;6.184;2024-01-25T02:03:07;5.90;99.90
53053;DHT22;38934;52.690;6.184;2024-01-25T02:05:33;5.80;99.90
53053;DHT22;38934;52.690;6.184;2024-01-25T02:07:58;5.80;99.90
53053;DHT22;38934;52.690;6.184;2024-01-25T02:10:24;5.80;99.90
53053;DHT22;38934;52.690;6.184;2024-01-25T02:12:49;5.80;99.90
53053;DHT22;38934;52.690;6.184;2024-01-25T02:15:15;5.70;99.90
53053;DHT22;38934;52.690;6.184;2024-01-25T02:17:40;5.80;99.90
53053;DHT22;38934;52.690;6.184;2024-01-25T02:20:07;5.70;99.90
53053;DHT22;38934;52.690;6.184;2024-01-25T02:22:33;5.70;99.90
53053;DHT22;38934;52.690;6.184;2024-01-25T02:24:58;5.80;99.90
53053;DHT22;38934;52.690;6.184;2024-01-25T02:27:24;5.70;99.90
53053;DHT22;38934;52.690;6.184;2024-01-25T02:29:49;5.70;99.90
53053;DHT22;38934;52.690;6.184;2024-01-25T02:32:15;5.70;99.90
53053;DHT22;38934;52.690;6.184;2024-01-25T02:34:40;5.70;99.90
53053;DHT22;38934;52.690;6.184;2024-01-25T02:37:06;5.70;99.90
53053;DHT22;38934;52.690;6.184;2024-01-25T02:39:32;5.60;99.90
53053;DHT22;38934;52.690;6.184;2024-01-25T02:41:57;6.50;99.90
53053;DHT22;38934;52.690;6.184;2024-01-25T02:44:23;5.60;99.90
53053;DHT22;38934;52.690;6.184;2024-01-25T02:46:48;5.60;99.90
53053;DHT22;38934;52.690;6.184;2024-01-25T02:49:14;5.60;99.90
53053;DHT22;38934;52.690;6.184;2024-01-25T02:51:39;6.00;99.90
53053;DHT22;38934;52.690;6.184;2024-01-25T02:54:05;5.50;99.90
53053;DHT22;38934;52.690;6.184;2024-01-25T02:56:31;5.50;99.90
53053;DHT22;38934;52.690;6.184;2024-01-25T02:59:01;5.50;99.90
53053;DHT22;38934;52.690;6.184;2024-01-25T03:01:26;5.50;99.90
53053;DHT22;38934;52.690;6.184;2024-01-25T03:03:53;5.50;99.90
53053;DHT22;38934;52.690;6.184;2024-01-25T03:06:18;5.50;99.90
53053;DHT22;38934;52.690;6.184;2024-01-25T03:08:44;5.50;99.90
53053;DHT22;38934;52.690;6.184;2024-01-25T03:11:09;5.40;99.90
53053;DHT22;38934;52.690;6.184;2024-01-25T03:13:35;5.40;99.90
53053;DHT22;38934;52.690;6.184;2024-01-25T03:16:01;5.40;99.90
53053;DHT22;38934;52.690;6.184;2024-01-25T03:18:26;5.40;99.90
53053;DHT22;38934;52.690;6.184;2024-01-25T03:20:52;5.40;99.90
53053;DHT22;38934;52.690;6.184;2024-01-25T03:23:18;5.40;99.90
53053;DHT22;38934;52.690;6.184;2024-01-25T03:25:43;5.40;99.90
53053;DHT22;38934;52.690;6.184;2024-01-25T03:28:09;5.40;99.90
53053;DHT22;38934;52.690;6.184;2024-01-25T03:30:36;5.40;99.90
53053;DHT22;38934;52.690;6.184;2024-01-25T03:33:02;5.40;99.90
53053;DHT22;38934;52.690;6.184;2024-01-25T03:35:27;5.40;99.90
53053;DHT22;38934;52.690;6.184;2024-01-25T03:37:53;5.30;99.90
53053;DHT22;38934;52.690;6.184;2024-01-25T03:40:19;5.30;99.90
53053;DHT22;38934;52.690;6.184;2024-01-25T03:42:44;5.30;99.90
53053;DHT22;38934;52.690;6.184;2024-01-25T03:45:10;5.30;99.90
53053;DHT22;38934;52.690;6.184;2024-01-25T03:47:35;5.30;99.90
53053;DHT22;38934;52.690;6.184;2024-01-25T03:50:01;5.30;99.90
53053;DHT22;38934;52.690;6.184;2024-01-25T03:52:26;5.30;99.90
53053;DHT22;38934;52.690;6.184;2024-01-25T03:54:55;5.30;99.90
53053;DHT22;38934;52.690;6.184;2024-01-25T03:57:21;5.20;99.90
53053;DHT22;38934;52.690;6.184;2024-01-25T03:59:46;5.20;99.90
53053;DHT22;38934;52.690;6.184;2024-01-25T04:02:12;5.10;99.90
53053;DHT22;38934;52.690;6.184;2024-01-25T04:04:38;5.10;99.90
53053;DHT22;38934;52.690;6.184;2024-01-25T04:07:03;5.10;99.90
53053;DHT22;38934;52.690;6.184;2024-01-25T04:09:29;5.10;99.90
53053;DHT22;38934;52.690;6.184;2024-01-25T04:11:55;5.00;99.90
53053;DHT22;38934;52.690;6.184;2024-01-25T04:14:21;5.00;99.90
53053;DHT22;38934;52.690;6.184;2024-01-25T04:16:47;5.00;99.90
53053;DHT22;38934;52.690;6.184;2024-01-25T04:19:12;5.00;99.90
53053;DHT22;38934;52.690;6.184;2024-01-25T04:21:38;5.00;99.90
53053;DHT22;38934;52.690;6.184;2024-01-25T04:24:04;5.00;99.90
53053;DHT22;38934;52.690;6.184;2024-01-25T04:26:30;4.90;99.90
53053;DHT22;38934;52.690;6.184;2024-01-25T04:28:55;4.90;99.90
53053;DHT22;38934;52.690;6.184;2024-01-25T04:31:21;4.90;99.90
53053;DHT22;38934;52.690;6.184;2024-01-25T04:33:47;5.50;99.90
53053;DHT22;38934;52.690;6.184;2024-01-25T04:36:12;4.90;99.90
53053;DHT22;38934;52.690;6.184;2024-01-25T04:38:38;4.80;99.90
53053;DHT22;38934;52.690;6.184;2024-01-25T04:41:04;4.80;99.90
53053;DHT22;38934;52.690;6.184;2024-01-25T04:43:36;4.80;99.90
53053;DHT22;38934;52.690;6.184;2024-01-25T04:46:02;4.80;99.90
53053;DHT22;38934;52.690;6.184;2024-01-25T04:48:29;4.80;99.90
53053;DHT22;38934;52.690;6.184;2024-01-25T04:50:59;4.80;99.90
53053;DHT22;38934;52.690;6.184;2024-01-25T04:53:25;4.70;99.90
53053;DHT22;38934;52.690;6.184;2024-01-25T04:55:50;4.70;99.90
53053;DHT22;38934;52.690;6.184;2024-01-25T04:58:16;4.90;99.90
53053;DHT22;38934;52.690;6.184;2024-01-25T05:00:42;4.70;99.90
53053;DHT22;38934;52.690;6.184;2024-01-25T05:03:07;4.70;99.90
53053;DHT22;38934;52.690;6.184;2024-01-25T05:05:33;4.70;99.90
53053;DHT22;38934;52.690;6.184;2024-01-25T05:07:58;4.60;99.90
53053;DHT22;38934;52.690;6.184;2024-01-25T05:10:24;4.60;99.90
53053;DHT22;38934;52.690;6.184;2024-01-25T05:12:51;4.50;99.90
53053;DHT22;38934;52.690;6.184;2024-01-25T05:15:16;4.50;99.90
53053;DHT22;38934;52.690;6.184;2024-01-25T05:17:42;4.40;99.90
53053;DHT22;38934;52.690;6.184;2024-01-25T05:20:08;4.40;99.90
53053;DHT22;38934;52.690;6.184;2024-01-25T05:22:34;4.40;99.90
53053;DHT22;38934;52.690;6.184;2024-01-25T05:25:05;4.30;99.90
53053;DHT22;38934;52.690;6.184;2024-01-25T05:27:31;4.20;99.90
53053;DHT22;38934;52.690;6.184;2024-01-25T05:29:57;4.20;99.90
53053;DHT22;38934;52.690;6.184;2024-01-25T05:32:22;4.10;99.90
53053;DHT22;38934;52.690;6.184;2024-01-25T05:34:48;4.00;99.90
53053;DHT22;38934;52.690;6.184;2024-01-25T05:37:13;4.00;99.90
53053;DHT22;38934;52.690;6.184;2024-01-25T05:39:39;3.90;99.90
53053;DHT22;38934;52.690;6.184;2024-01-25T05:42:05;3.80;99.90
53053;DHT22;38934;52.690;6.184;2024-01-25T05:44:30;3.70;99.90
53053;DHT22;38934;52.690;6.184;2024-01-25T05:46:56;3.70;99.90
53053;DHT22;38934;52.690;6.184;2024-01-25T05:49:22;3.60;99.90
53053;DHT22;38934;52.690;6.184;2024-01-25T05:51:47;3.60;99.90
53053;DHT22;38934;52.690;6.184;2024-01-25T05:54:13;3.50;99.90
53053;DHT22;38934;52.690;6.184;2024-01-25T05:56:38;3.50;99.90
53053;DHT22;38934;52.690;6.184;2024-01-25T05:59:04;3.50;99.90
53053;DHT22;38934;52.690;6.184;2024-01-25T06:01:29;3.50;99.90
53053;DHT22;38934;52.690;6.184;2024-01-25T06:03:55;3.50;99.90
53053;DHT22;38934;52.690;6.184;2024-01-25T06:06:20;3.50;99.90
53053;DHT22;38934;52.690;6.184;2024-01-25T06:08:46;3.40;99.90
53053;DHT22;38934;52.690;6.184;2024-01-25T06:11:12;3.40;99.90
53053;DHT22;38934;52.690;6.184;2024-01-25T06:13:37;3.40;99.90
53053;DHT22;38934;52.690;6.184;2024-01-25T06:16:03;3.40;99.90
53053;DHT22;38934;52.690;6.184;2024-01-25T06:18:29;3.40;99.90
53053;DHT22;38934;52.690;6.184;2024-01-25T06:20:54;3.30;99.90
53053;DHT22;38934;52.690;6.184;2024-01-25T06:23:20;3.40;99.90
53053;DHT22;38934;52.690;6.184;2024-01-25T06:25:45;3.40;99.90
53053;DHT22;38934;52.690;6.184;2024-01-25T06:28:11;3.30;99.90
53053;DHT22;38934;52.690;6.184;2024-01-25T06:30:37;3.30;99.90
53053;DHT22;38934;52.690;6.184;2024-01-25T06:33:03;3.30;99.90
53053;DHT22;38934;52.690;6.184;2024-01-25T06:35:28;3.20;99.90
53053;DHT22;38934;52.690;6.184;2024-01-25T06:37:54;3.20;99.90
53053;DHT22;38934;52.690;6.184;2024-01-25T06:40:19;3.20;99.90
53053;DHT22;38934;52.690;6.184;2024-01-25T06:42:45;3.20;99.90
53053;DHT22;38934;52.690;6.184;2024-01-25T06:45:11;3.20;99.90
53053;DHT22;38934;52.690;6.184;2024-01-25T06:47:36;3.20;99.90
53053;DHT22;38934;52.690;6.184;2024-01-25T06:50:02;3.20;99.90
53053;DHT22;38934;52.690;6.184;2024-01-25T06:52:28;3.20;99.90
53053;DHT22;38934;52.690;6.184;2024-01-25T06:54:53;3.20;99.90
53053;DHT22;38934;52.690;6.184;2024-01-25T06:57:19;3.20;99.90
53053;DHT22;38934;52.690;6.184;2024-01-25T06:59:45;3.20;99.90
53053;DHT22;38934;52.690;6.184;2024-01-25T07:02:10;3.20;99.90
53053;DHT22;38934;52.690;6.184;2024-01-25T07:04:37;3.20;99.90
53053;DHT22;38934;52.690;6.184;2024-01-25T07:07:03;3.20;99.90
53053;DHT22;38934;52.690;6.184;2024-01-25T07:09:29;3.20;99.90
53053;DHT22;38934;52.690;6.184;2024-01-25T07:11:55;3.20;99.90
53053;DHT22;38934;52.690;6.184;2024-01-25T07:14:20;3.20;99.90
53053;DHT22;38934;52.690;6.184;2024-01-25T07:16:46;3.20;99.90
53053;DHT22;38934;52.690;6.184;2024-01-25T07:19:11;3.20;99.90
53053;DHT22;38934;52.690;6.184;2024-01-25T07:21:37;3.20;99.90
53053;DHT22;38934;52.690;6.184;2024-01-25T07:24:03;3.20;99.90
53053;DHT22;38934;52.690;6.184;2024-01-25T07:26:32;3.20;99.90
53053;DHT22;38934;52.690;6.184;2024-01-25T07:28:57;3.20;99.90
53053;DHT22;38934;52.690;6.184;2024-01-25T07:31:26;3.20;99.90
53053;DHT22;38934;52.690;6.184;2024-01-25T07:33:53;3.30;99.90
53053;DHT22;38934;52.690;6.184;2024-01-25T07:36:19;3.20;99.90
53053;DHT22;38934;52.690;6.184;2024-01-25T07:38:45;3.20;99.90
53053;DHT22;38934;52.690;6.184;2024-01-25T07:41:13;3.20;99.90
53053;DHT22;38934;52.690;6.184;2024-01-25T07:43:38;3.30;99.90
53053;DHT22;38934;52.690;6.184;2024-01-25T07:46:04;3.30;99.90
53053;DHT22;38934;52.690;6.184;2024-01-25T07:48:30;3.30;99.90
53053;DHT22;38934;52.690;6.184;2024-01-25T07:50:56;3.50;99.90
53053;DHT22;38934;52.690;6.184;2024-01-25T07:53:22;3.30;99.90
53053;DHT22;38934;52.690;6.184;2024-01-25T07:55:47;3.30;99.90
53053;DHT22;38934;52.690;6.184;2024-01-25T07:58:14;3.30;99.90
53053;DHT22;38934;52.690;6.184;2024-01-25T08:00:40;3.40;99.90
53053;DHT22;38934;52.690;6.184;2024-01-25T08:03:05;3.40;99.90
53053;DHT22;38934;52.690;6.184;2024-01-25T08:05:31;3.40;99.90
53053;DHT22;38934;52.690;6.184;2024-01-25T08:07:57;3.40;99.90
53053;DHT22;38934;52.690;6.184;2024-01-25T08:10:22;3.40;99.90
53053;DHT22;38934;52.690;6.184;2024-01-25T08:12:48;3.50;99.90
53053;DHT22;38934;52.690;6.184;2024-01-25T08:15:14;4.30;99.90
53053;DHT22;38934;52.690;6.184;2024-01-25T08:17:40;3.50;99.90
53053;DHT22;38934;52.690;6.184;2024-01-25T08:20:06;3.50;99.90
53053;DHT22;38934;52.690;6.184;2024-01-25T08:22:32;3.60;99.90
53053;DHT22;38934;52.690;6.184;2024-01-25T08:24:58;3.60;99.90
53053;DHT22;38934;52.690;6.184;2024-01-25T08:27:24;3.60;99.90
53053;DHT22;38934;52.690;6.184;2024-01-25T08:29:50;3.60;99.90
53053;DHT22;38934;52.690;6.184;2024-01-25T08:32:15;3.70;99.90
53053;DHT22;38934;52.690;6.184;2024-01-25T08:34:41;3.70;99.90
53053;DHT22;38934;52.690;6.184;2024-01-25T08:37:07;3.70;99.90
53053;DHT22;38934;52.690;6.184;2024-01-25T08:39:33;3.70;99.90
53053;DHT22;38934;52.690;6.184;2024-01-25T08:41:58;4.00;99.90
53053;DHT22;38934;52.690;6.184;2024-01-25T08:44:27;3.80;99.90
53053;DHT22;38934;52.690;6.184;2024-01-25T08:46:53;3.80;99.90
53053;DHT22;38934;52.690;6.184;2024-01-25T08:49:18;3.90;99.90
53053;DHT22;38934;52.690;6.184;2024-01-25T08:51:44;3.90;99.90
53053;DHT22;38934;52.690;6.184;2024-01-25T08:54:09;3.90;99.90
53053;DHT22;38934;52.690;6.184;2024-01-25T08:56:35;4.00;99.90
53053;DHT22;38934;52.690;6.184;2024-01-25T08:59:01;4.10;99.90
53053;DHT22;38934;52.690;6.184;2024-01-25T09:01:26;4.10;99.90
53053;DHT22;38934;52.690;6.184;2024-01-25T09:03:52;4.10;99.90
53053;DHT22;38934;52.690;6.184;2024-01-25T09:06:18;4.20;99.90
53053;DHT22;38934;52.690;6.184;2024-01-25T09:08:44;4.20;99.90
53053;DHT22;38934;52.690;6.184;2024-01-25T09:11:09;4.20;99.90
53053;DHT22;38934;52.690;6.184;2024-01-25T09:13:35;4.30;99.90
53053;DHT22;38934;52.690;6.184;2024-01-25T09:16:00;4.30;99.90
53053;DHT22;38934;52.690;6.184;2024-01-25T09:18:26;4.40;99.90
53053;DHT22;38934;52.690;6.184;2024-01-25T09:20:51;4.50;99.90
53053;DHT22;38934;52.690;6.184;2024-01-25T09:23:17;4.50;99.90
53053;DHT22;38934;52.690;6.184;2024-01-25T09:25:44;4.60;99.90
53053;DHT22;38934;52.690;6.184;2024-01-25T09:28:16;5.60;99.90
53053;DHT22;38934;52.690;6.184;2024-01-25T09:30:42;4.70;99.90
53053;DHT22;38934;52.690;6.184;2024-01-25T09:33:08;4.90;99.90
53053;DHT22;38934;52.690;6.184;2024-01-25T09:35:33;4.90;99.90
53053;DHT22;38934;52.690;6.184;2024-01-25T09:37:59;5.00;99.90
53053;DHT22;38934;52.690;6.184;2024-01-25T09:40:25;5.10;99.90
53053;DHT22;38934;52.690;6.184;2024-01-25T09:42:52;5.10;99.90
53053;DHT22;38934;52.690;6.184;2024-01-25T09:45:18;5.10;99.90
53053;DHT22;38934;52.690;6.184;2024-01-25T09:47:48;5.20;99.90
53053;DHT22;38934;52.690;6.184;2024-01-25T09:50:13;5.20;99.90
53053;DHT22;38934;52.690;6.184;2024-01-25T09:52:42;5.20;99.90
53053;DHT22;38934;52.690;6.184;2024-01-25T09:55:11;5.30;99.90
53053;DHT22;38934;52.690;6.184;2024-01-25T09:57:41;5.30;99.90
53053;DHT22;38934;52.690;6.184;2024-01-25T10:00:11;5.30;99.90
53053;DHT22;38934;52.690;6.184;2024-01-25T10:02:38;5.40;99.90
53053;DHT22;38934;52.690;6.184;2024-01-25T10:05:04;5.50;99.90
53053;DHT22;38934;52.690;6.184;2024-01-25T10:07:42;5.60;99.90
53053;DHT22;38934;52.690;6.184;2024-01-25T10:10:08;5.70;99.90
53053;DHT22;38934;52.690;6.184;2024-01-25T10:12:34;5.70;99.90
53053;DHT22;38934;52.690;6.184;2024-01-25T10:15:00;5.80;99.90
53053;DHT22;38934;52.690;6.184;2024-01-25T10:17:28;5.70;99.90
53053;DHT22;38934;52.690;6.184;2024-01-25T10:19:53;5.80;99.90
53053;DHT22;38934;52.690;6.184;2024-01-25T10:22:19;6.40;99.90
53053;DHT22;38934;52.690;6.184;2024-01-25T10:24:46;5.80;99.90
53053;DHT22;38934;52.690;6.184;2024-01-25T10:27:12;6.10;99.90
53053;DHT22;38934;52.690;6.184;2024-01-25T10:29:38;5.90;99.90
53053;DHT22;38934;52.690;6.184;2024-01-25T10:32:04;5.90;99.90
53053;DHT22;38934;52.690;6.184;2024-01-25T10:34:35;6.00;99.90
53053;DHT22;38934;52.690;6.184;2024-01-25T10:37:03;6.20;99.90
53053;DHT22;38934;52.690;6.184;2024-01-25T10:39:30;6.10;99.90
53053;DHT22;38934;52.690;6.184;2024-01-25T10:41:58;6.10;99.90
53053;DHT22;38934;52.690;6.184;2024-01-25T10:44:25;6.90;99.90
53053;DHT22;38934;52.690;6.184;2024-01-25T10:46:50;6.10;99.90
53053;DHT22;38934;52.690;6.184;2024-01-25T10:49:17;6.20;99.90
53053;DHT22;38934;52.690;6.184;2024-01-25T10:51:44;7.00;99.90
53053;DHT22;38934;52.690;6.184;2024-01-25T10:54:14;6.20;99.90
53053;DHT22;38934;52.690;6.184;2024-01-25T10:56:44;6.20;99.90
53053;DHT22;38934;52.690;6.184;2024-01-25T10:59:11;6.30;99.90
53053;DHT22;38934;52.690;6.184;2024-01-25T11:01:37;6.30;99.90
53053;DHT22;38934;52.690;6.184;2024-01-25T11:04:11;6.40;99.90
53053;DHT22;38934;52.690;6.184;2024-01-25T11:06:37;6.30;99.90
53053;DHT22;38934;52.690;6.184;2024-01-25T11:09:06;6.30;99.90
53053;DHT22;38934;52.690;6.184;2024-01-25T11:11:32;6.30;99.90
53053;DHT22;38934;52.690;6.184;2024-01-25T11:13:58;6.30;99.90
53053;DHT22;38934;52.690;6.184;2024-01-25T11:16:31;6.40;99.90
53053;DHT22;38934;52.690;6.184;2024-01-25T11:18:59;6.40;99.90
53053;DHT22;38934;52.690;6.184;2024-01-25T11:21:49;6.50;99.90
53053;DHT22;38934;52.690;6.184;2024-01-25T11:24:19;6.50;99.90
53053;DHT22;38934;52.690;6.184;2024-01-25T11:26:46;6.50;99.90
53053;DHT22;38934;52.690;6.184;2024-01-25T11:29:20;6.50;99.90
53053;DHT22;38934;52.690;6.184;2024-01-25T11:31:49;6.60;99.90
53053;DHT22;38934;52.690;6.184;2024-01-25T11:34:15;6.60;99.90
53053;DHT22;38934;52.690;6.184;2024-01-25T11:36:44;6.60;99.90
53053;DHT22;38934;52.690;6.184;2024-01-25T11:39:10;6.70;99.90
53053;DHT22;38934;52.690;6.184;2024-01-25T11:41:37;6.70;99.90
53053;DHT22;38934;52.690;6.184;2024-01-25T11:44:03;6.80;99.90
53053;DHT22;38934;52.690;6.184;2024-01-25T11:46:29;7.00;99.90
53053;DHT22;38934;52.690;6.184;2024-01-25T11:48:59;7.10;99.90
53053;DHT22;38934;52.690;6.184;2024-01-25T11:51:24;7.20;99.90
53053;DHT22;38934;52.690;6.184;2024-01-25T11:53:50;7.30;99.90
53053;DHT22;38934;52.690;6.184;2024-01-25T11:56:42;7.40;99.90
53053;DHT22;38934;52.690;6.184;2024-01-25T11:59:08;7.50;99.90
53053;DHT22;38934;52.690;6.184;2024-01-25T12:01:35;7.60;99.90
53053;DHT22;38934;52.690;6.184;2024-01-25T12:04:01;7.70;99.90
53053;DHT22;38934;52.690;6.184;2024-01-25T12:06:27;7.70;99.90
53053;DHT22;38934;52.690;6.184;2024-01-25T12:08:52;7.80;99.90
53053;DHT22;38934;52.690;6.184;2024-01-25T12:11:18;7.80;99.90
53053;DHT22;38934;52.690;6.184;2024-01-25T12:13:44;7.80;99.90
53053;DHT22;38934;52.690;6.184;2024-01-25T12:16:11;7.80;99.90
53053;DHT22;38934;52.690;6.184;2024-01-25T12:18:37;7.70;99.90
53053;DHT22;38934;52.690;6.184;2024-01-25T12:21:04;7.80;99.90
53053;DHT22;38934;52.690;6.184;2024-01-25T12:23:40;7.80;99.90
53053;DHT22;38934;52.690;6.184;2024-01-25T12:26:09;7.80;99.90
53053;DHT22;38934;52.690;6.184;2024-01-25T12:28:36;7.90;99.90
53053;DHT22;38934;52.690;6.184;2024-01-25T12:31:03;7.90;99.90
53053;DHT22;38934;52.690;6.184;2024-01-25T12:33:29;7.90;99.90
53053;DHT22;38934;52.690;6.184;2024-01-25T12:35:55;7.90;99.90
53053;DHT22;38934;52.690;6.184;2024-01-25T12:38:23;7.80;99.90
53053;DHT22;38934;52.690;6.184;2024-01-25T12:40:50;8.50;99.90
53053;DHT22;38934;52.690;6.184;2024-01-25T12:43:16;7.90;99.90
53053;DHT22;38934;52.690;6.184;2024-01-25T12:45:42;8.00;99.90
53053;DHT22;38934;52.690;6.184;2024-01-25T12:48:08;8.10;99.90
53053;DHT22;38934;52.690;6.184;2024-01-25T12:50:34;8.20;99.90
53053;DHT22;38934;52.690;6.184;2024-01-25T12:53:01;8.60;99.90
53053;DHT22;38934;52.690;6.184;2024-01-25T12:55:28;8.40;99.90
53053;DHT22;38934;52.690;6.184;2024-01-25T12:57:54;8.40;99.90
53053;DHT22;38934;52.690;6.184;2024-01-25T13:00:21;8.50;99.90
53053;DHT22;38934;52.690;6.184;2024-01-25T13:02:47;8.60;99.90
53053;DHT22;38934;52.690;6.184;2024-01-25T13:05:13;8.60;99.90
53053;DHT22;38934;52.690;6.184;2024-01-25T13:07:39;8.60;99.90
53053;DHT22;38934;52.690;6.184;2024-01-25T13:10:05;8.50;99.90
53053;DHT22;38934;52.690;6.184;2024-01-25T13:12:31;8.50;99.90
53053;DHT22;38934;52.690;6.184;2024-01-25T13:14:57;8.50;99.90
53053;DHT22;38934;52.690;6.184;2024-01-25T13:17:22;8.50;99.90
53053;DHT22;38934;52.690;6.184;2024-01-25T13:19:49;8.50;99.90
53053;DHT22;38934;52.690;6.184;2024-01-25T13:22:15;8.50;99.90
53053;DHT22;38934;52.690;6.184;2024-01-25T13:24:42;8.50;99.90
53053;DHT22;38934;52.690;6.184;2024-01-25T13:27:09;8.50;99.90
53053;DHT22;38934;52.690;6.184;2024-01-25T13:29:34;8.50;99.90
53053;DHT22;38934;52.690;6.184;2024-01-25T13:32:00;8.50;99.90
53053;DHT22;38934;52.690;6.184;2024-01-25T13:34:25;8.50;99.90
53053;DHT22;38934;52.690;6.184;2024-01-25T13:36:51;8.50;99.90
53053;DHT22;38934;52.690;6.184;2024-01-25T13:39:17;8.50;99.90
53053;DHT22;38934;52.690;6.184;2024-01-25T13:41:42;8.50;99.90
53053;DHT22;38934;52.690;6.184;2024-01-25T13:44:08;8.40;99.90
53053;DHT22;38934;52.690;6.184;2024-01-25T13:46:33;8.50;99.90
53053;DHT22;38934;52.690;6.184;2024-01-25T13:48:59;8.50;99.90
53053;DHT22;38934;52.690;6.184;2024-01-25T13:51:25;8.50;99.90
53053;DHT22;38934;52.690;6.184;2024-01-25T13:53:50;8.50;99.90
53053;DHT22;38934;52.690;6.184;2024-01-25T13:56:16;8.50;99.90
53053;DHT22;38934;52.690;6.184;2024-01-25T13:58:42;8.40;99.90
53053;DHT22;38934;52.690;6.184;2024-01-25T14:01:07;8.40;99.90
53053;DHT22;38934;52.690;6.184;2024-01-25T14:03:33;8.40;99.90
53053;DHT22;38934;52.690;6.184;2024-01-25T14:06:00;8.40;99.90
53053;DHT22;38934;52.690;6.184;2024-01-25T14:08:29;8.40;99.90
53053;DHT22;38934;52.690;6.184;2024-01-25T14:10:55;8.40;99.90
53053;DHT22;38934;52.690;6.184;2024-01-25T14:13:21;8.60;99.90
53053;DHT22;38934;52.690;6.184;2024-01-25T14:15:46;8.30;99.90
53053;DHT22;38934;52.690;6.184;2024-01-25T14:18:12;8.30;99.90
53053;DHT22;38934;52.690;6.184;2024-01-25T14:20:38;8.30;99.90
53053;DHT22;38934;52.690;6.184;2024-01-25T14:23:04;8.20;99.90
53053;DHT22;38934;52.690;6.184;2024-01-25T14:25:29;9.10;99.90
53053;DHT22;38934;52.690;6.184;2024-01-25T14:27:55;8.20;99.90
53053;DHT22;38934;52.690;6.184;2024-01-25T14:30:20;8.20;99.90
53053;DHT22;38934;52.690;6.184;2024-01-25T14:32:46;8.60;99.90
53053;DHT22;38934;52.690;6.184;2024-01-25T14:35:14;8.10;99.90
53053;DHT22;38934;52.690;6.184;2024-01-25T14:37:40;8.10;99.90
53053;DHT22;38934;52.690;6.184;2024-01-25T14:40:07;8.10;99.90
53053;DHT22;38934;52.690;6.184;2024-01-25T14:42:32;8.10;99.90
53053;DHT22;38934;52.690;6.184;2024-01-25T14:44:58;8.10;99.90
53053;DHT22;38934;52.690;6.184;2024-01-25T14:47:24;8.10;99.90
53053;DHT22;38934;52.690;6.184;2024-01-25T14:49:49;8.10;99.90
53053;DHT22;38934;52.690;6.184;2024-01-25T14:52:17;8.10;99.90
53053;DHT22;38934;52.690;6.184;2024-01-25T14:54:43;8.10;99.90
53053;DHT22;38934;52.690;6.184;2024-01-25T14:57:09;8.70;99.90
53053;DHT22;38934;52.690;6.184;2024-01-25T14:59:35;8.10;99.90
53053;DHT22;38934;52.690;6.184;2024-01-25T15:02:00;8.10;99.90
53053;DHT22;38934;52.690;6.184;2024-01-25T15:04:26;9.00;99.90
53053;DHT22;38934;52.690;6.184;2024-01-25T15:06:55;8.10;99.90
53053;DHT22;38934;52.690;6.184;2024-01-25T15:09:21;8.00;99.90
53053;DHT22;38934;52.690;6.184;2024-01-25T15:11:46;8.00;99.90
53053;DHT22;38934;52.690;6.184;2024-01-25T15:14:13;8.00;99.90
53053;DHT22;38934;52.690;6.184;2024-01-25T15:16:39;8.00;99.90
53053;DHT22;38934;52.690;6.184;2024-01-25T15:19:06;7.90;99.90
53053;DHT22;38934;52.690;6.184;2024-01-25T15:21:31;8.00;99.90
53053;DHT22;38934;52.690;6.184;2024-01-25T15:23:57;9.10;99.90
53053;DHT22;38934;52.690;6.184;2024-01-25T15:26:22;7.90;99.90
53053;DHT22;38934;52.690;6.184;2024-01-25T15:28:48;7.80;99.90
53053;DHT22;38934;52.690;6.184;2024-01-25T15:31:15;7.90;99.90
53053;DHT22;38934;52.690;6.184;2024-01-25T15:33:41;7.80;99.90
53053;DHT22;38934;52.690;6.184;2024-01-25T15:36:07;7.80;99.90
53053;DHT22;38934;52.690;6.184;2024-01-25T15:38:32;7.80;99.90